Terminal Aerodrome Forecast
Issued by NWS

Current Version | Previous Version | Text Only | Print | Product List | Glossary Off
Versions: 1 2 3 4 5 6 7 8 9 10 11 12 13 14 15 16 17 18 19 20 21 22 23

000
FTUS41 KRLX 120308 AAA
TAFCKB
TAF AMD
KCKB 120308Z 1203/1224 15003KT P6SM OVC140
     FM120500 19007KT P6SM BKN060
     FM120800 23009KT P6SM OVC060
     FM121200 25011G17KT 6SM -SHSN OVC030
     FM121400 27014G24KT 5SM -SHSN OVC015
     FM122000 28013G25KT P6SM -SHSN BKN020=

USA.gov is the U.S. government's official web portal to all federal, state and local government web resources and services.